createdAt,value
2023-03-20T00:00:22.075Z,8.60
2023-03-20T00:01:28.526Z,8.60
2023-03-20T00:02:31.638Z,8.70
2023-03-20T00:03:35.249Z,8.70
2023-03-20T00:04:37.281Z,8.70
2023-03-20T00:05:41.255Z,8.70
2023-03-20T00:06:43.196Z,8.80
2023-03-20T00:07:46.288Z,8.70
2023-03-20T00:08:50.708Z,8.70
2023-03-20T00:09:54.850Z,8.70
2023-03-20T00:10:56.802Z,8.80
2023-03-20T00:12:00.278Z,8.80
2023-03-20T00:13:03.778Z,8.80
2023-03-20T00:14:10.510Z,8.80
2023-03-20T00:15:24.443Z,8.80
2023-03-20T00:16:32.578Z,8.80
2023-03-20T00:17:34.543Z,8.70
2023-03-20T00:18:38.591Z,8.80
2023-03-20T00:19:40.490Z,8.80
2023-03-20T00:20:43.379Z,8.80
2023-03-20T00:21:47.598Z,8.70
2023-03-20T00:22:50.971Z,8.60
2023-03-20T00:24:56.194Z,8.60
2023-03-20T00:25:58.203Z,8.60
2023-03-20T00:27:02.700Z,8.70
2023-03-20T00:28:23.217Z,8.70
2023-03-20T00:29:28.715Z,8.70
2023-03-20T00:30:31.291Z,8.70
2023-03-20T00:31:37.711Z,8.80
2023-03-20T00:32:39.697Z,8.80
2023-03-20T00:33:42.664Z,8.80
2023-03-20T00:34:44.730Z,8.80
2023-03-20T00:35:47.808Z,8.80
2023-03-20T00:36:49.910Z,8.80
2023-03-20T00:37:53.879Z,8.80
2023-03-20T00:38:57.831Z,8.80
2023-03-20T00:41:03.464Z,8.80
2023-03-20T00:42:07.857Z,8.80
2023-03-20T00:43:12.655Z,8.80
2023-03-20T00:44:22.751Z,8.80
2023-03-20T00:45:25.411Z,8.80
2023-03-20T00:46:29.203Z,8.80
2023-03-20T00:47:37.158Z,8.70
2023-03-20T00:48:41.544Z,8.70
2023-03-20T00:49:45.722Z,8.70
2023-03-20T00:50:49.641Z,8.70
2023-03-20T00:51:51.614Z,8.70
2023-03-20T00:52:55.058Z,8.70
2023-03-20T00:53:56.976Z,8.80
2023-03-20T00:54:59.904Z,8.80
2023-03-20T00:56:03.151Z,8.70
2023-03-20T00:57:08.576Z,8.60
2023-03-20T00:58:13.093Z,8.60
2023-03-20T00:59:18.769Z,8.60
2023-03-20T01:00:37.269Z,8.60
2023-03-20T01:01:39.325Z,8.60
2023-03-20T01:02:43.622Z,8.60
2023-03-20T01:03:45.792Z,8.60
2023-03-20T01:04:48.953Z,8.60
2023-03-20T01:05:51.880Z,8.60
2023-03-20T01:06:54.812Z,8.70
2023-03-20T01:07:56.879Z,8.60
2023-03-20T01:09:00.101Z,8.60
2023-03-20T01:10:02.144Z,8.60
2023-03-20T01:11:05.418Z,8.60
2023-03-20T01:12:08.004Z,8.60
2023-03-20T01:13:21.503Z,8.50
2023-03-20T01:14:23.949Z,8.40
2023-03-20T01:15:31.714Z,8.40
2023-03-20T01:16:33.784Z,8.40
2023-03-20T01:17:36.692Z,8.40
2023-03-20T01:18:40.006Z,8.40
2023-03-20T01:19:42.909Z,8.40
2023-03-20T01:20:45.857Z,8.40
2023-03-20T01:21:48.864Z,8.40
2023-03-20T01:22:50.936Z,8.40
2023-03-20T01:23:53.898Z,8.40
2023-03-20T01:24:55.823Z,8.40
2023-03-20T01:25:59.022Z,8.40
2023-03-20T01:27:04.070Z,8.40
2023-03-20T01:28:16.402Z,8.30
2023-03-20T01:29:20.150Z,8.30
2023-03-20T01:30:26.105Z,8.30
2023-03-20T01:31:28.122Z,8.30
2023-03-20T01:32:31.094Z,4.00
2023-03-20T01:33:33.130Z,8.30
2023-03-20T01:34:37.439Z,8.30
2023-03-20T01:35:40.102Z,8.30
2023-03-20T01:36:45.614Z,8.30
2023-03-20T01:37:48.862Z,8.40
2023-03-20T01:38:56.666Z,8.40
2023-03-20T01:39:58.857Z,8.30
2023-03-20T01:41:05.916Z,8.30
2023-03-20T01:42:08.250Z,8.30
2023-03-20T01:43:15.828Z,8.30
2023-03-20T01:44:22.561Z,8.30
2023-03-20T01:45:30.805Z,8.20
2023-03-20T01:46:35.012Z,8.20
2023-03-20T01:47:37.902Z,8.20
2023-03-20T01:49:00.297Z,8.20
2023-03-20T01:50:22.607Z,8.20
2023-03-20T01:51:26.994Z,8.30
2023-03-20T01:52:28.936Z,8.30
2023-03-20T01:53:32.062Z,8.30
2023-03-20T01:54:35.825Z,8.30
2023-03-20T01:55:41.407Z,8.30
2023-03-20T01:56:48.122Z,8.30
2023-03-20T01:57:53.934Z,8.30
2023-03-20T01:59:00.455Z,8.30
2023-03-20T02:00:06.775Z,8.20
2023-03-20T02:01:12.401Z,8.20
2023-03-20T02:02:16.924Z,8.30
2023-03-20T02:03:20.631Z,8.30
2023-03-20T02:04:26.182Z,8.30
2023-03-20T02:05:31.011Z,8.30
2023-03-20T02:06:34.321Z,8.30
2023-03-20T02:07:38.146Z,8.30
2023-03-20T02:08:44.848Z,8.30
2023-03-20T02:09:47.875Z,8.30
2023-03-20T02:10:51.359Z,8.30
2023-03-20T02:11:54.738Z,8.40
2023-03-20T02:12:58.123Z,8.40
2023-03-20T02:14:01.709Z,8.40
2023-03-20T02:15:06.445Z,8.40
2023-03-20T02:16:12.906Z,8.40
2023-03-20T02:17:15.678Z,8.30
2023-03-20T02:18:18.815Z,8.40
2023-03-20T02:19:29.105Z,8.30
2023-03-20T02:20:46.185Z,8.30
2023-03-20T02:22:25.547Z,8.40
2023-03-20T02:23:55.144Z,8.40
2023-03-20T02:25:35.377Z,8.40
2023-03-20T02:26:53.425Z,8.30
2023-03-20T02:28:21.785Z,8.30
2023-03-20T02:30:06.262Z,8.30
2023-03-20T02:31:29.537Z,8.30
2023-03-20T02:33:22.452Z,8.40
2023-03-20T02:34:52.700Z,8.30
2023-03-20T02:36:22.224Z,8.30
2023-03-20T02:37:44.481Z,8.20
2023-03-20T02:39:05.339Z,8.20
2023-03-20T02:40:17.853Z,8.10
2023-03-20T02:41:26.851Z,8.10
2023-03-20T02:42:38.851Z,8.10
2023-03-20T02:43:45.561Z,8.10
2023-03-20T02:44:54.885Z,8.10
2023-03-20T02:46:08.840Z,8.10
2023-03-20T02:47:17.022Z,8.10
2023-03-20T02:48:31.844Z,8.10
2023-03-20T02:49:57.096Z,7.90
2023-03-20T02:51:04.008Z,7.90
2023-03-20T02:52:13.440Z,7.90
2023-03-20T02:53:28.179Z,7.90
2023-03-20T02:54:40.181Z,7.90
2023-03-20T02:55:49.014Z,7.90
2023-03-20T02:57:00.109Z,7.90
2023-03-20T02:58:09.934Z,7.90
2023-03-20T02:59:20.125Z,8.00
2023-03-20T03:00:29.441Z,7.90
2023-03-20T03:01:35.324Z,7.90
2023-03-20T03:02:41.720Z,8.00
2023-03-20T03:03:48.691Z,8.00
2023-03-20T03:04:55.614Z,7.90
2023-03-20T03:06:00.566Z,8.00
2023-03-20T03:07:04.901Z,7.90
2023-03-20T03:08:11.448Z,7.90
2023-03-20T03:09:20.040Z,7.90
2023-03-20T03:10:24.916Z,8.00
2023-03-20T03:11:27.847Z,8.00
2023-03-20T03:12:33.724Z,7.90
2023-03-20T03:13:39.963Z,7.90
2023-03-20T03:14:46.592Z,7.90
2023-03-20T03:15:53.401Z,7.90
2023-03-20T03:16:57.698Z,7.90
2023-03-20T03:18:03.242Z,7.90
2023-03-20T03:19:09.226Z,7.90
2023-03-20T03:20:22.546Z,7.90
2023-03-20T03:21:24.992Z,8.00
2023-03-20T03:22:28.282Z,8.00
2023-03-20T03:23:32.909Z,8.00
2023-03-20T03:24:41.884Z,8.00
2023-03-20T03:25:44.111Z,8.00
2023-03-20T03:26:47.562Z,7.90
2023-03-20T03:27:53.486Z,8.00
2023-03-20T03:29:01.507Z,7.90
2023-03-20T03:30:08.332Z,8.00
2023-03-20T03:31:15.678Z,7.90
2023-03-20T03:32:25.452Z,7.90
2023-03-20T03:33:31.224Z,7.90
2023-03-20T03:34:33.959Z,7.90
2023-03-20T03:35:37.729Z,7.90
2023-03-20T03:36:49.251Z,7.90
2023-03-20T03:38:00.412Z,7.90
2023-03-20T03:39:10.626Z,5.20
2023-03-20T03:40:22.933Z,7.90
2023-03-20T03:41:29.723Z,7.90
2023-03-20T03:42:36.515Z,8.00
2023-03-20T03:43:44.488Z,8.00
2023-03-20T03:44:56.558Z,8.00
2023-03-20T03:46:01.309Z,8.10
2023-03-20T03:47:09.612Z,8.10
2023-03-20T03:48:15.781Z,8.10
2023-03-20T03:49:23.657Z,8.20
2023-03-20T03:50:29.792Z,8.20
2023-03-20T03:51:36.095Z,8.10
2023-03-20T03:52:40.532Z,8.20
2023-03-20T03:53:49.117Z,8.20
2023-03-20T03:54:54.119Z,8.20
2023-03-20T03:56:02.620Z,8.20
2023-03-20T03:57:06.879Z,8.20
2023-03-20T03:58:12.847Z,8.20
2023-03-20T03:59:20.810Z,8.20
2023-03-20T04:00:25.206Z,8.20
2023-03-20T04:01:29.077Z,8.20
2023-03-20T04:02:32.595Z,8.20
2023-03-20T04:03:38.459Z,8.20
2023-03-20T04:04:45.352Z,8.20
2023-03-20T04:05:47.967Z,8.20
2023-03-20T04:06:50.902Z,8.10
2023-03-20T04:07:55.739Z,8.20
2023-03-20T04:08:58.704Z,8.20
2023-03-20T04:10:00.709Z,8.20
2023-03-20T04:11:05.313Z,8.20
2023-03-20T04:12:18.553Z,8.30
2023-03-20T04:13:21.540Z,8.30
2023-03-20T04:14:23.507Z,8.30
2023-03-20T04:15:27.860Z,8.20
2023-03-20T04:16:29.955Z,8.20
2023-03-20T04:17:32.939Z,8.30
2023-03-20T04:18:34.929Z,8.30
2023-03-20T04:19:37.844Z,8.30
2023-03-20T04:20:39.747Z,8.30
2023-03-20T04:21:42.631Z,8.20
2023-03-20T04:22:44.620Z,8.30
2023-03-20T04:23:47.729Z,8.20
2023-03-20T04:24:51.139Z,8.20
2023-03-20T04:25:54.055Z,8.20
2023-03-20T04:26:57.857Z,8.20
2023-03-20T04:28:00.886Z,8.20
2023-03-20T04:29:02.976Z,8.20
2023-03-20T04:30:06.966Z,8.20
2023-03-20T04:31:09.030Z,8.20
2023-03-20T04:32:12.654Z,8.30
2023-03-20T04:33:14.625Z,8.20
2023-03-20T04:34:18.100Z,8.20
2023-03-20T04:35:20.079Z,8.20
2023-03-20T04:36:23.385Z,8.20
2023-03-20T04:37:25.358Z,8.20
2023-03-20T04:38:28.581Z,8.20
2023-03-20T04:39:30.572Z,8.20
2023-03-20T04:40:33.520Z,8.20
2023-03-20T04:41:35.605Z,8.30
2023-03-20T04:42:40.052Z,8.30
2023-03-20T04:43:41.965Z,8.30
2023-03-20T04:44:44.885Z,8.30
2023-03-20T04:45:47.105Z,8.30
2023-03-20T04:46:50.226Z,8.30
2023-03-20T04:47:52.303Z,8.30
2023-03-20T04:48:55.252Z,8.30
2023-03-20T04:49:57.290Z,8.30
2023-03-20T04:51:00.296Z,8.30
2023-03-20T04:52:02.294Z,8.30
2023-03-20T04:53:05.769Z,8.20
2023-03-20T04:54:07.776Z,8.30
2023-03-20T04:55:10.893Z,8.30
2023-03-20T04:56:12.834Z,8.20
2023-03-20T04:57:16.226Z,8.30
2023-03-20T04:58:19.618Z,8.30
2023-03-20T04:59:22.723Z,8.40
2023-03-20T05:00:24.799Z,8.30
2023-03-20T05:01:27.883Z,8.40
2023-03-20T05:02:29.820Z,8.40
2023-03-20T05:03:33.258Z,8.40
2023-03-20T05:04:36.372Z,8.30
2023-03-20T05:05:39.254Z,8.30
2023-03-20T05:06:41.317Z,8.40
2023-03-20T05:07:44.252Z,8.30
2023-03-20T05:08:46.166Z,8.30
2023-03-20T05:09:49.308Z,8.30
2023-03-20T05:10:51.783Z,8.30
2023-03-20T05:11:54.718Z,8.30
2023-03-20T05:12:56.760Z,8.30
2023-03-20T05:14:01.054Z,8.30
2023-03-20T05:15:03.010Z,8.30
2023-03-20T05:16:06.419Z,8.30
2023-03-20T05:17:08.470Z,8.40
2023-03-20T05:18:11.520Z,8.30
2023-03-20T05:19:13.465Z,8.30
2023-03-20T05:20:16.928Z,8.30
2023-03-20T05:21:18.888Z,8.30
2023-03-20T05:22:21.803Z,8.20
2023-03-20T05:23:23.785Z,8.20
2023-03-20T05:24:27.473Z,8.20
2023-03-20T05:25:29.448Z,8.30
2023-03-20T05:26:32.394Z,8.30
2023-03-20T05:27:34.922Z,8.30
2023-03-20T05:28:38.245Z,8.20
2023-03-20T05:29:41.624Z,8.30
2023-03-20T05:30:44.524Z,8.30
2023-03-20T05:31:46.588Z,8.30
2023-03-20T05:32:50.933Z,8.30
2023-03-20T05:33:52.951Z,8.30
2023-03-20T05:34:55.901Z,8.30
2023-03-20T05:35:57.844Z,8.00
2023-03-20T05:37:00.916Z,8.20
2023-03-20T05:38:02.913Z,8.20
2023-03-20T05:39:06.342Z,8.30
2023-03-20T05:40:11.106Z,8.30
2023-03-20T05:41:14.106Z,8.40
2023-03-20T05:42:16.109Z,8.30
2023-03-20T05:43:18.999Z,8.30
2023-03-20T05:44:21.211Z,8.30
2023-03-20T05:45:25.686Z,8.30
2023-03-20T05:46:27.710Z,8.40
2023-03-20T05:47:30.984Z,8.30
2023-03-20T05:48:32.902Z,8.30
2023-03-20T05:49:35.973Z,8.30
2023-03-20T05:50:37.988Z,8.40
2023-03-20T05:51:41.029Z,8.40
2023-03-20T05:52:43.073Z,8.40
2023-03-20T05:53:46.177Z,8.40
2023-03-20T05:54:48.302Z,8.40
2023-03-20T05:55:52.433Z,8.40
2023-03-20T05:56:54.498Z,8.50
2023-03-20T05:57:57.495Z,8.50
2023-03-20T05:58:59.464Z,8.50
2023-03-20T06:00:02.358Z,8.50
2023-03-20T06:01:06.201Z,8.60
2023-03-20T06:02:09.225Z,8.60
2023-03-20T06:03:12.191Z,8.60
2023-03-20T06:04:15.596Z,8.60
2023-03-20T06:05:17.733Z,8.60
2023-03-20T06:06:20.775Z,8.60
2023-03-20T06:07:22.676Z,8.60
2023-03-20T06:08:25.764Z,8.60
2023-03-20T06:09:27.708Z,8.60
2023-03-20T06:10:31.053Z,8.60
2023-03-20T06:11:35.484Z,8.60
2023-03-20T06:12:40.063Z,8.60
2023-03-20T06:13:42.975Z,8.60
2023-03-20T06:14:44.944Z,8.60
2023-03-20T06:15:47.924Z,8.60
2023-03-20T06:16:51.245Z,8.60
2023-03-20T06:17:58.432Z,8.60
2023-03-20T06:19:00.415Z,8.70
2023-03-20T06:20:03.660Z,8.70
2023-03-20T06:21:07.519Z,8.70
2023-03-20T06:22:09.490Z,8.70
2023-03-20T06:23:13.834Z,8.70
2023-03-20T06:24:15.995Z,8.80
2023-03-20T06:25:19.363Z,8.80
2023-03-20T06:26:21.516Z,8.80
2023-03-20T06:27:24.419Z,8.70
2023-03-20T06:28:26.391Z,8.80
2023-03-20T06:29:29.928Z,8.80
2023-03-20T06:30:32.901Z,8.90
2023-03-20T06:31:34.925Z,8.90
2023-03-20T06:32:39.392Z,8.90
2023-03-20T06:33:41.347Z,8.90
2023-03-20T06:34:44.313Z,8.90
2023-03-20T06:35:46.429Z,8.90
2023-03-20T06:36:49.459Z,9.00
2023-03-20T06:37:51.355Z,9.00
2023-03-20T06:39:12.922Z,9.00
2023-03-20T06:40:15.923Z,8.90
2023-03-20T06:41:31.859Z,9.00
2023-03-20T06:42:37.474Z,9.00
2023-03-20T06:43:39.566Z,9.00
2023-03-20T06:44:42.458Z,8.90
2023-03-20T06:45:44.424Z,8.90
2023-03-20T06:46:47.427Z,8.90
2023-03-20T06:47:50.864Z,9.00
2023-03-20T06:48:53.851Z,9.00
2023-03-20T06:49:56.780Z,9.00
2023-03-20T06:50:58.757Z,9.00
2023-03-20T06:52:01.693Z,9.10
2023-03-20T06:53:04.045Z,9.10
2023-03-20T06:54:07.047Z,9.10
2023-03-20T06:55:09.779Z,9.10
2023-03-20T06:56:13.309Z,9.10
2023-03-20T06:57:17.678Z,9.10
2023-03-20T06:58:20.780Z,9.10
2023-03-20T06:59:22.776Z,9.20
2023-03-20T07:00:26.236Z,9.10
2023-03-20T07:01:29.395Z,9.00
2023-03-20T07:02:31.906Z,9.10
2023-03-20T07:03:36.741Z,9.10
2023-03-20T07:04:39.839Z,9.10
2023-03-20T07:05:42.551Z,9.10
2023-03-20T07:06:45.618Z,9.10
2023-03-20T07:07:48.725Z,9.20
2023-03-20T07:08:52.754Z,9.20
2023-03-20T07:09:55.753Z,9.20
2023-03-20T07:10:57.773Z,9.20
2023-03-20T07:12:02.995Z,9.30
2023-03-20T07:13:05.008Z,9.30
2023-03-20T07:14:07.999Z,9.30
2023-03-20T07:15:11.328Z,9.30
2023-03-20T07:16:14.468Z,9.30
2023-03-20T07:17:16.674Z,9.30
2023-03-20T07:18:19.924Z,9.30
2023-03-20T07:19:23.785Z,9.40
2023-03-20T07:20:26.736Z,9.40
2023-03-20T07:21:29.598Z,9.40
2023-03-20T07:22:32.549Z,9.50
2023-03-20T07:23:34.972Z,9.40
2023-03-20T07:24:37.883Z,9.50
2023-03-20T07:25:43.122Z,9.50
2023-03-20T07:26:46.376Z,9.50
2023-03-20T07:27:50.471Z,9.60
2023-03-20T07:28:52.464Z,9.60
2023-03-20T07:29:55.620Z,9.60
2023-03-20T07:30:58.074Z,9.70
2023-03-20T07:32:02.673Z,9.70
2023-03-20T07:33:06.333Z,9.70
2023-03-20T07:34:08.546Z,9.60
2023-03-20T07:35:13.293Z,9.60
2023-03-20T07:36:15.402Z,9.60
2023-03-20T07:37:18.464Z,9.60
2023-03-20T07:38:20.420Z,9.60
2023-03-20T07:39:23.970Z,9.60
2023-03-20T07:40:26.138Z,9.70
2023-03-20T07:41:29.080Z,9.70
2023-03-20T07:42:31.372Z,9.70
2023-03-20T07:43:34.754Z,9.80
2023-03-20T07:44:36.744Z,9.80
2023-03-20T07:45:39.958Z,9.80
2023-03-20T07:46:44.692Z,9.80
2023-03-20T07:47:48.272Z,9.80
2023-03-20T07:48:51.842Z,9.80
2023-03-20T07:49:53.841Z,9.80
2023-03-20T07:50:58.135Z,9.90
2023-03-20T07:52:01.072Z,9.90
2023-03-20T07:53:03.442Z,9.90
2023-03-20T07:54:06.716Z,9.90
2023-03-20T07:55:09.167Z,9.90
2023-03-20T07:56:12.272Z,10.00
2023-03-20T07:57:15.467Z,10.00
2023-03-20T07:58:17.614Z,10.00
2023-03-20T07:59:20.594Z,10.00
2023-03-20T08:00:22.741Z,10.00
2023-03-20T08:01:26.132Z,10.10
2023-03-20T08:02:29.063Z,10.10
2023-03-20T08:03:32.354Z,10.10
2023-03-20T08:04:34.394Z,10.10
2023-03-20T08:05:38.158Z,10.10
2023-03-20T08:06:43.653Z,10.20
2023-03-20T08:07:46.953Z,10.10
2023-03-20T08:08:52.419Z,10.10
2023-03-20T08:09:55.338Z,10.10
2023-03-20T08:10:58.279Z,10.20
2023-03-20T08:12:01.507Z,10.20
2023-03-20T08:13:05.179Z,10.20
2023-03-20T08:14:07.308Z,10.20
2023-03-20T08:15:11.475Z,10.20
2023-03-20T08:16:14.646Z,10.20
2023-03-20T08:17:21.176Z,10.20
2023-03-20T08:18:26.347Z,10.20
2023-03-20T08:19:28.516Z,10.30
2023-03-20T08:20:31.844Z,10.30
2023-03-20T08:21:34.886Z,10.50
2023-03-20T08:22:38.468Z,10.40
2023-03-20T08:23:41.444Z,10.40
2023-03-20T08:24:43.448Z,10.40
2023-03-20T08:25:49.192Z,10.50
2023-03-20T08:26:52.574Z,10.40
2023-03-20T08:27:55.584Z,10.50
2023-03-20T08:28:58.252Z,10.40
2023-03-20T08:30:01.518Z,10.60
2023-03-20T08:31:08.213Z,10.50
2023-03-20T08:32:11.280Z,10.50
2023-03-20T08:33:14.053Z,10.60
2023-03-20T08:34:17.170Z,10.60
2023-03-20T08:35:32.520Z,10.60
2023-03-20T08:36:36.092Z,10.60
2023-03-20T08:37:39.462Z,10.60
2023-03-20T08:38:42.704Z,10.60
2023-03-20T08:39:45.765Z,10.70
2023-03-20T08:40:47.706Z,10.70
2023-03-20T08:41:50.718Z,10.70
2023-03-20T08:42:52.667Z,10.70
2023-03-20T08:43:55.595Z,10.90
2023-03-20T08:44:57.522Z,10.80
2023-03-20T08:46:01.526Z,10.90
2023-03-20T08:47:05.618Z,10.90
2023-03-20T08:48:07.790Z,10.90
2023-03-20T08:49:10.795Z,11.00
2023-03-20T08:50:13.783Z,11.00
2023-03-20T08:51:17.004Z,11.00
2023-03-20T08:52:19.981Z,10.90
2023-03-20T08:53:24.315Z,11.00
2023-03-20T08:54:27.690Z,11.00
2023-03-20T08:55:29.605Z,11.10
2023-03-20T08:56:32.669Z,11.10
2023-03-20T08:57:35.809Z,11.10
2023-03-20T08:58:37.866Z,11.10
2023-03-20T08:59:40.789Z,11.30
2023-03-20T09:00:42.933Z,11.20
2023-03-20T09:01:50.065Z,11.10
2023-03-20T09:02:53.412Z,11.10
2023-03-20T09:03:56.465Z,11.10
2023-03-20T09:04:58.555Z,11.10
2023-03-20T09:06:01.557Z,11.10
2023-03-20T09:07:04.672Z,11.10
2023-03-20T09:08:07.011Z,11.10
2023-03-20T09:09:11.402Z,11.10
2023-03-20T09:10:17.036Z,11.10
2023-03-20T09:11:21.247Z,11.20
2023-03-20T09:12:23.178Z,11.30
2023-03-20T09:13:28.029Z,11.30
2023-03-20T09:14:31.462Z,11.30
2023-03-20T09:15:34.648Z,11.50
2023-03-20T09:16:37.912Z,11.40
2023-03-20T09:17:39.959Z,11.50
2023-03-20T09:18:42.978Z,11.50
2023-03-20T09:19:45.156Z,11.60
2023-03-20T09:20:48.548Z,11.50
2023-03-20T09:21:51.606Z,11.40
2023-03-20T09:22:54.584Z,11.70
2023-03-20T09:23:56.589Z,11.50
2023-03-20T09:25:00.946Z,11.60
2023-03-20T09:26:03.944Z,11.70
2023-03-20T09:27:06.483Z,11.60
2023-03-20T09:28:09.440Z,11.50
2023-03-20T09:29:11.557Z,11.50
2023-03-20T09:30:15.330Z,11.60
2023-03-20T09:31:17.427Z,11.70
2023-03-20T09:32:20.386Z,11.70
2023-03-20T09:33:22.304Z,11.70
2023-03-20T09:34:25.239Z,11.70
2023-03-20T09:35:28.249Z,11.70
2023-03-20T09:36:30.199Z,11.80
2023-03-20T09:37:33.143Z,11.80
2023-03-20T09:38:36.100Z,11.80
2023-03-20T09:39:39.154Z,11.70
2023-03-20T09:40:51.459Z,11.80
2023-03-20T09:41:57.608Z,11.70
2023-03-20T09:43:07.820Z,11.70
2023-03-20T09:44:16.544Z,11.70
2023-03-20T09:45:26.802Z,11.80
2023-03-20T09:46:50.800Z,11.80
2023-03-20T09:48:01.449Z,11.80
2023-03-20T09:49:14.466Z,11.90
2023-03-20T09:50:30.129Z,12.00
2023-03-20T09:51:39.480Z,12.10
2023-03-20T09:52:46.412Z,12.10
2023-03-20T09:53:54.167Z,12.20
2023-03-20T09:54:59.835Z,12.30
2023-03-20T09:56:05.315Z,12.30
2023-03-20T09:57:16.101Z,12.30
2023-03-20T09:58:22.733Z,12.30
2023-03-20T09:59:27.465Z,12.20
2023-03-20T10:00:33.891Z,12.30
2023-03-20T10:01:45.444Z,12.30
2023-03-20T10:02:53.121Z,12.20
2023-03-20T10:03:58.823Z,12.30
2023-03-20T10:05:03.890Z,12.10
2023-03-20T10:06:08.893Z,12.00
2023-03-20T10:07:15.555Z,12.00
2023-03-20T10:08:22.703Z,12.00
2023-03-20T10:09:26.783Z,11.90
2023-03-20T10:10:37.194Z,12.00
2023-03-20T10:12:06.786Z,11.70
2023-03-20T10:13:24.404Z,11.50
2023-03-20T10:14:39.151Z,11.80
2023-03-20T10:15:48.870Z,12.00
2023-03-20T10:17:04.961Z,12.90
2023-03-20T10:18:18.852Z,12.80
2023-03-20T10:19:26.149Z,12.50
2023-03-20T10:20:35.514Z,12.20
2023-03-20T10:21:45.912Z,11.90
2023-03-20T10:22:52.374Z,11.80
2023-03-20T10:24:02.002Z,11.80
2023-03-20T10:25:08.836Z,11.80
2023-03-20T10:26:15.679Z,11.60
2023-03-20T10:27:28.212Z,11.60
2023-03-20T10:28:35.010Z,11.70
2023-03-20T10:29:48.521Z,12.20
2023-03-20T10:31:03.166Z,12.60
2023-03-20T10:32:13.328Z,12.30
2023-03-20T10:33:32.807Z,12.20
2023-03-20T10:34:51.403Z,11.90
2023-03-20T10:36:06.627Z,11.70
2023-03-20T10:37:28.967Z,11.90
2023-03-20T10:38:41.027Z,12.30
2023-03-20T10:39:53.140Z,12.40
2023-03-20T10:40:58.827Z,12.80
2023-03-20T10:42:04.508Z,13.00
2023-03-20T10:43:15.901Z,13.60
2023-03-20T10:44:26.728Z,13.70
2023-03-20T10:45:35.951Z,13.40
2023-03-20T10:46:44.690Z,13.30
2023-03-20T10:47:51.845Z,12.90
2023-03-20T10:49:01.651Z,12.50
2023-03-20T10:50:08.099Z,12.60
2023-03-20T10:51:16.161Z,12.50
2023-03-20T10:52:22.670Z,12.60
2023-03-20T10:53:31.455Z,12.70
2023-03-20T10:54:36.390Z,12.70
2023-03-20T10:55:43.732Z,12.70
2023-03-20T10:56:49.932Z,12.40
2023-03-20T10:57:58.542Z,12.70
2023-03-20T10:59:06.987Z,13.30
2023-03-20T11:00:17.582Z,13.00
2023-03-20T11:01:21.406Z,12.60
2023-03-20T11:02:28.797Z,12.50
2023-03-20T11:03:34.187Z,12.50
2023-03-20T11:04:36.289Z,12.30
2023-03-20T11:05:41.878Z,12.20
2023-03-20T11:06:54.542Z,12.20
2023-03-20T11:08:03.835Z,13.50
2023-03-20T11:09:17.702Z,12.00
2023-03-20T11:10:20.854Z,11.90
2023-03-20T11:11:25.847Z,12.00
2023-03-20T11:12:34.989Z,12.00
2023-03-20T11:13:41.096Z,12.00
2023-03-20T11:14:44.485Z,12.00
2023-03-20T11:15:47.588Z,12.10
2023-03-20T11:16:52.333Z,12.20
2023-03-20T11:17:56.328Z,12.20
2023-03-20T11:19:07.088Z,12.20
2023-03-20T11:20:13.963Z,12.10
2023-03-20T11:21:23.593Z,12.10
2023-03-20T11:22:26.911Z,12.00
2023-03-20T11:23:34.115Z,11.90
2023-03-20T11:24:40.382Z,11.90
2023-03-20T11:25:51.493Z,12.00
2023-03-20T11:26:56.530Z,12.00
2023-03-20T11:28:20.035Z,12.00
2023-03-20T11:29:30.814Z,11.90
2023-03-20T11:30:42.489Z,11.90
2023-03-20T11:31:52.500Z,11.80
2023-03-20T11:32:56.278Z,11.90
2023-03-20T11:34:11.710Z,12.00
2023-03-20T11:35:22.435Z,11.90
2023-03-20T11:36:29.911Z,12.00
2023-03-20T11:37:36.270Z,12.10
2023-03-20T11:38:45.346Z,12.10
2023-03-20T11:39:59.428Z,12.20
2023-03-20T11:41:05.590Z,12.20
2023-03-20T11:42:24.514Z,12.20
2023-03-20T11:43:28.593Z,12.10
2023-03-20T11:44:33.310Z,12.20
2023-03-20T11:45:39.052Z,12.20
2023-03-20T11:46:44.132Z,12.30
2023-03-20T11:47:52.038Z,12.30
2023-03-20T11:49:07.456Z,12.30
2023-03-20T11:50:26.333Z,12.20
2023-03-20T11:51:29.835Z,9.50
2023-03-20T11:52:33.676Z,12.10
2023-03-20T11:53:40.695Z,12.00
2023-03-20T11:54:49.982Z,12.00
2023-03-20T11:56:14.917Z,12.10
2023-03-20T11:57:32.206Z,12.20
2023-03-20T11:58:37.379Z,12.20
2023-03-20T11:59:41.350Z,12.20
2023-03-20T12:00:51.128Z,12.20
2023-03-20T12:01:56.235Z,12.20
2023-03-20T12:02:59.209Z,12.20
2023-03-20T12:04:04.506Z,12.40
2023-03-20T12:05:21.696Z,12.20
2023-03-20T12:06:27.111Z,12.20
2023-03-20T12:07:34.006Z,12.20
2023-03-20T12:08:39.388Z,12.20
2023-03-20T12:09:47.556Z,12.10
2023-03-20T12:10:55.574Z,11.90
2023-03-20T12:12:02.714Z,11.80
2023-03-20T12:13:12.959Z,11.80
2023-03-20T12:14:22.110Z,11.70
2023-03-20T12:15:29.215Z,11.70
2023-03-20T12:16:35.897Z,11.60
2023-03-20T12:17:47.176Z,11.60
2023-03-20T12:18:52.296Z,11.40
2023-03-20T12:20:00.751Z,11.40
2023-03-20T12:21:09.057Z,11.20
2023-03-20T12:22:20.065Z,11.20
2023-03-20T12:23:32.165Z,11.10
2023-03-20T12:24:41.178Z,11.10
2023-03-20T12:25:50.510Z,11.00
2023-03-20T12:26:58.633Z,10.90
2023-03-20T12:28:06.270Z,10.70
2023-03-20T12:29:17.562Z,10.60
2023-03-20T12:30:27.096Z,10.40
2023-03-20T12:31:39.651Z,10.50
2023-03-20T12:32:47.684Z,10.70
2023-03-20T12:33:55.834Z,10.80
2023-03-20T12:35:04.939Z,11.00
2023-03-20T12:36:15.099Z,10.90
2023-03-20T12:37:18.431Z,11.00
2023-03-20T12:38:28.006Z,11.10
2023-03-20T12:39:36.540Z,11.10
2023-03-20T12:40:43.435Z,11.20
2023-03-20T12:42:04.716Z,11.30
2023-03-20T12:43:16.874Z,11.40
2023-03-20T12:44:28.006Z,11.40
2023-03-20T12:45:38.073Z,11.50
2023-03-20T12:46:46.440Z,11.40
2023-03-20T12:48:19.495Z,11.50
2023-03-20T12:49:33.530Z,11.50
2023-03-20T12:50:38.819Z,11.50
2023-03-20T12:51:53.579Z,11.50
2023-03-20T12:53:07.029Z,11.60
2023-03-20T12:54:24.368Z,11.60
2023-03-20T12:55:36.375Z,11.60
2023-03-20T12:56:56.790Z,11.60
2023-03-20T12:58:13.147Z,11.60
2023-03-20T12:59:24.608Z,11.60
2023-03-20T13:00:33.759Z,11.70
2023-03-20T13:01:46.471Z,11.60
2023-03-20T13:03:02.627Z,11.70
2023-03-20T13:04:42.844Z,11.70
2023-03-20T13:05:49.454Z,11.70
2023-03-20T13:06:55.249Z,11.70
2023-03-20T13:08:32.623Z,11.70
2023-03-20T13:09:57.728Z,11.70
2023-03-20T13:11:08.773Z,11.70
2023-03-20T13:12:19.324Z,12.50
2023-03-20T13:13:32.084Z,11.70
2023-03-20T13:14:41.731Z,11.70
2023-03-20T13:15:58.558Z,11.70
2023-03-20T13:17:27.298Z,11.70
2023-03-20T13:18:45.891Z,11.70
2023-03-20T13:19:56.611Z,11.60
2023-03-20T13:21:04.017Z,11.70
2023-03-20T13:22:13.494Z,11.60
2023-03-20T13:23:23.173Z,11.60
2023-03-20T13:24:36.722Z,11.60
2023-03-20T13:25:53.893Z,11.60
2023-03-20T13:27:03.947Z,11.60
2023-03-20T13:28:12.585Z,11.60
2023-03-20T13:29:21.512Z,11.60
2023-03-20T13:30:29.593Z,11.60
2023-03-20T13:31:41.639Z,11.60
2023-03-20T13:32:58.460Z,11.80
2023-03-20T13:34:08.499Z,11.80
2023-03-20T13:35:33.611Z,11.60
2023-03-20T13:36:50.370Z,11.50
2023-03-20T13:37:56.334Z,11.80
2023-03-20T13:39:05.863Z,11.70
2023-03-20T13:40:17.969Z,11.60
2023-03-20T13:41:23.474Z,11.70
2023-03-20T13:42:31.953Z,11.60
2023-03-20T13:43:38.006Z,11.60
2023-03-20T13:44:44.397Z,11.50
2023-03-20T13:45:47.842Z,11.60
2023-03-20T13:46:54.907Z,11.50
2023-03-20T13:48:04.596Z,11.50
2023-03-20T13:49:14.003Z,11.40
2023-03-20T13:50:38.428Z,11.40
2023-03-20T13:51:46.690Z,11.30
2023-03-20T13:53:00.332Z,11.40
2023-03-20T13:54:16.323Z,11.30
2023-03-20T13:55:26.252Z,11.30
2023-03-20T13:56:38.881Z,11.20
2023-03-20T13:57:59.289Z,11.30
2023-03-20T13:59:22.907Z,11.30
2023-03-20T14:00:31.129Z,11.40
2023-03-20T14:01:43.976Z,11.30
2023-03-20T14:03:04.067Z,11.30
2023-03-20T14:04:13.951Z,11.30
2023-03-20T14:05:21.584Z,11.30
2023-03-20T14:06:50.987Z,11.30
2023-03-20T14:07:57.533Z,11.40
2023-03-20T14:09:01.386Z,11.40
2023-03-20T14:10:38.695Z,11.40
2023-03-20T14:11:41.076Z,11.40
2023-03-20T14:12:44.042Z,11.40
2023-03-20T14:13:49.194Z,11.40
2023-03-20T14:14:57.190Z,11.40
2023-03-20T14:16:03.740Z,11.40
2023-03-20T14:17:16.800Z,11.30
2023-03-20T14:18:22.533Z,11.40
2023-03-20T14:19:26.415Z,11.30
2023-03-20T14:20:33.138Z,11.30
2023-03-20T14:21:36.120Z,11.50
2023-03-20T14:22:41.002Z,11.30
2023-03-20T14:23:47.249Z,11.40
2023-03-20T14:24:57.694Z,11.40
2023-03-20T14:25:59.750Z,11.30
2023-03-20T14:27:03.570Z,11.30
2023-03-20T14:28:28.447Z,11.30
2023-03-20T14:29:37.048Z,11.30
2023-03-20T14:30:43.492Z,11.30
2023-03-20T14:31:50.390Z,11.30
2023-03-20T14:32:58.042Z,11.30
2023-03-20T14:34:17.310Z,11.30
2023-03-20T14:35:27.549Z,11.30